Carnival Pride — H3VU — position and weather

sailwx.info

Track history (hours):
 
Tides and Currents Weather Stations Pressure Air Temp Water Temp Dewpoint Dewpoint Depression Visibility Wind Speed Wind Dir Waves Ship Positions

Carnival Pride

Operator: Carnival Cruise Lines

Last reported at 2018-Dec-11 02:00 UTC. Time now 2018-Dec-11 07:03 UTC.
Position N 32°54' W 078°06'.

Type: Passenger vessel. MMSI: 354215000.

Wind from 350 at 40 knots

Barometer 1018.9 mb
Air temperature 13.0 ° C
Visibility: greater than 10.8 NM
Dewpoint 11.1 ° C
Water temperature 24.0 ° C

Date/timePositionNaut miles runAvg speedWind from/ knotsBaromVisibWave heightAir tempDewpointWater temp
2018-Dec-11 02:00N 32°54' W 078°06'16518.3 350 / 401018.910.8 13.011.124.0
2018-Dec-10 17:00N 34°42' W 075°36'3635.9 010 / 451010.0 2.2 12.010.123.0
2018-Dec-10 16:00N 35°12' W 075°12'11414.5 020 / 401011.9 2.2 12.0 7.912.0
2018-Dec-10 08:06N 36°59' W 076°01'3716.4
2018-Dec-10 05:51N 37°36' W 076°05'617.9
2018-Dec-10 05:29N 37°41' W 076°10'1523.6
2018-Dec-10 04:52N 37°56' W 076°10'410.3
2018-Dec-10 04:30N 37°59' W 076°12'1019.4
2018-Dec-10 04:00N 38°09' W 076°14'2020.1
2018-Dec-10 03:00N 38°28' W 076°23'1019.3
2018-Dec-10 02:30N 38°37' W 076°26'1019.4
2018-Dec-10 02:00N 38°47' W 076°25'918.9
2018-Dec-10 01:30N 38°56' W 076°23'713.2
2018-Dec-10 01:00N 39°03' W 076°23'4 7.5
2018-Dec-10 00:30N 39°06' W 076°24'4 8.3
2018-Dec-10 00:00N 39°10' W 076°26'510.7
2018-Dec-09 23:30N 39°13' W 076°32'4 7.6
2018-Dec-09 23:00N 39°15' W 076°35'1 1.0
2018-Dec-09 22:20N 39°16' W 076°36'316637.3
2018-Dec-09 21:50N 34°01' W 075°58'316781.4
2018-Dec-09 21:26N 39°16' W 076°36'0 0.0
2018-Dec-09 20:38N 39°16' W 076°36'0 0.0
2018-Dec-09 20:30N 39°16' W 076°36'0 0.0
2018-Dec-09 19:42N 39°16' W 076°36'0 0.0
2018-Dec-09 19:14N 39°16' W 076°36'0 0.0
2018-Dec-09 19:00N 39°16' W 076°36'0 0.0
2018-Dec-09 18:14N 39°16' W 076°36'0 0.0
2018-Dec-09 17:56N 39°16' W 076°36'0 0.0
2018-Dec-09 17:30N 39°16' W 076°36'0 0.0
2018-Dec-09 16:48N 39°16' W 076°36'0 0.0
2018-Dec-09 16:20N 39°16' W 076°36'0 0.0
2018-Dec-09 16:00N 39°16' W 076°36'0 0.0
2018-Dec-09 15:24N 39°16' W 076°36'0 0.0
2018-Dec-09 15:00N 39°16' W 076°36'0 0.0
2018-Dec-09 14:30N 39°16' W 076°36'0 0.0
2018-Dec-09 13:58N 39°16' W 076°36'1 1.6
2018-Dec-09 13:31N 39°15' W 076°35'4 8.7
2018-Dec-09 13:01N 39°12' W 076°31'612.7
2018-Dec-09 12:31N 39°09' W 076°25'715.0
2018-Dec-09 12:00N 39°01' W 076°23'917.5
2018-Dec-09 11:30N 38°53' W 076°24'1020.7
2018-Dec-09 11:01N 38°42' W 076°26'3420.2
2018-Dec-09 09:21N 38°10' W 076°14'820.7
2018-Dec-09 08:57N 38°02' W 076°13'920.2
2018-Dec-09 08:29N 37°53' W 076°09'5117.9
2018-Dec-09 05:37N 37°02' W 076°04'418.4
2018-Dec-09 05:25N 36°59' W 076°00'16816.1
2018-Dec-08 19:00N 34°12' W 075°42'12024.1 020 / 251028.9 5.4 14.010.225.0
2018-Dec-08 14:00N 32°42' W 077°18'3919.6 040 / 201029.9 5.4 18.010.624.0
2018-Dec-08 12:00N 32°12' W 077°48'13422.4 050 / 91028.310.8 20.010.927.0
2018-Dec-08 06:00N 30°30' W 079°30'27212.3 130 / 101026.1 5.4 22.013.424.0
2018-Dec-07 08:00N 26°06' W 078°18'   050 / 121024.9 5.4 22.017.224.0
2018-Dec-04 18:00N 28°24' W 075°36'4210.5 280 / 171014.8 5.4 24.021.024.0
2018-Dec-04 14:00N 29°06' W 075°36'11416.4 270 / 281018.9 5.4 24.022.525.0
2018-Dec-04 07:00N 31°00' W 075°24'4214.1 250 / 161012.8 5.4 24.021.024.0
2018-Dec-04 04:00N 31°42' W 075°18'18715.6 250 / 271014.910.8 23.021.526.0
2018-Dec-03 16:00N 34°48' W 075°00'8318.6 260 / 261015.9 5.4 22.017.226.0
2018-Dec-03 11:30N 36°10' W 075°19'2619.5
2018-Dec-03 10:09N 36°33' W 075°35'717.6
2018-Dec-03 09:44N 36°39' W 075°39'8113.9
2018-Dec-03 03:55N 37°57' W 076°10'818.5
2018-Dec-03 03:27N 38°05' W 076°13'3018.5
2018-Dec-03 01:50N 38°33' W 076°26'1018.8
2018-Dec-03 01:19N 38°43' W 076°26'619.3
2018-Dec-03 01:01N 38°49' W 076°25'917.0
2018-Dec-03 00:30N 38°57' W 076°23'713.6
2018-Dec-03 00:00N 39°04' W 076°23'611.8
2018-Dec-02 23:30N 39°10' W 076°25'611.9
2018-Dec-02 23:00N 39°13' W 076°32'4 7.8
2018-Dec-02 22:30N 39°15' W 076°35'1 1.1
2018-Dec-02 21:54N 39°16' W 076°36'0 0.0
2018-Dec-02 21:30N 39°16' W 076°36'0 0.0
2018-Dec-02 20:42N 39°16' W 076°36'0 0.0
2018-Dec-02 20:24N 39°16' W 076°36'0 0.0
2018-Dec-02 20:00N 39°16' W 076°36'0 0.0
2018-Dec-02 19:26N 39°16' W 076°36'0 0.0
2018-Dec-02 18:38N 39°16' W 076°36'0 0.0
2018-Dec-02 18:26N 39°16' W 076°36'0 0.0
2018-Dec-02 17:54N 39°16' W 076°36'0 0.0
2018-Dec-02 17:26N 39°16' W 076°36'0 0.0
2018-Dec-02 16:56N 39°16' W 076°36'0 0.0
2018-Dec-02 16:14N 39°16' W 076°36'0 0.0
2018-Dec-02 16:00N 39°16' W 076°36'0 0.0
2018-Dec-02 15:24N 39°16' W 076°36'0 0.0
2018-Dec-02 15:00N 39°16' W 076°36'0 0.0
2018-Dec-02 14:30N 39°16' W 076°36'0 0.0
2018-Dec-02 14:00N 39°16' W 076°36'0 0.6
2018-Dec-02 13:31N 39°16' W 076°36'2 4.3
2018-Dec-02 13:00N 39°15' W 076°33'5 9.0
2018-Dec-02 12:30N 39°12' W 076°29'611.2
2018-Dec-02 12:00N 39°08' W 076°24'713.9
2018-Dec-02 11:30N 39°01' W 076°23'816.0
2018-Dec-02 11:01N 38°53' W 076°24'1018.2
2018-Dec-02 10:28N 38°43' W 076°26'3119.9
2018-Dec-02 08:54N 38°13' W 076°15'920.8
2018-Dec-02 08:28N 38°04' W 076°13'920.2
2018-Dec-02 08:00N 37°55' W 076°09'5417.6
2018-Dec-02 04:55N 37°01' W 076°03'26517.8
2018-Dec-01 14:00N 32°42' W 077°12'21824.2 150 / 261022.910.8 23.014.626.0
2018-Dec-01 05:00N 29°42' W 079°36'   130 / 131023.927.0 22.015.427.0
Track history (hours):
 
Tides and Currents Weather Stations Pressure Air Temp Water Temp Dewpoint Dewpoint Depression Visibility Wind Speed Wind Dir Waves Ship Positions

Carnival Pride

Operator: Carnival Cruise Lines

Last reported at 2018-Dec-11 02:00 UTC. Time now 2018-Dec-11 07:03 UTC.
Position N 32°54' W 078°06'.

Type: Passenger vessel. MMSI: 354215000.

Wind from 350 at 40 knots

Barometer 1018.9 mb
Air temperature 13.0 ° C
Visibility: greater than 10.8 NM
Dewpoint 11.1 ° C
Water temperature 24.0 ° C

Date/timePositionNaut miles runAvg speedWind from/ knotsBaromVisibWave heightAir tempDewpointWater temp
2018-Dec-11 02:00N 32°54' W 078°06'16518.3 350 / 401018.910.8 13.011.124.0
2018-Dec-10 17:00N 34°42' W 075°36'3635.9 010 / 451010.0 2.2 12.010.123.0
2018-Dec-10 16:00N 35°12' W 075°12'11414.5 020 / 401011.9 2.2 12.0 7.912.0
2018-Dec-10 08:06N 36°59' W 076°01'3716.4
2018-Dec-10 05:51N 37°36' W 076°05'617.9
2018-Dec-10 05:29N 37°41' W 076°10'1523.6
2018-Dec-10 04:52N 37°56' W 076°10'410.3
2018-Dec-10 04:30N 37°59' W 076°12'1019.4
2018-Dec-10 04:00N 38°09' W 076°14'2020.1
2018-Dec-10 03:00N 38°28' W 076°23'1019.3
2018-Dec-10 02:30N 38°37' W 076°26'1019.4
2018-Dec-10 02:00N 38°47' W 076°25'918.9
2018-Dec-10 01:30N 38°56' W 076°23'713.2
2018-Dec-10 01:00N 39°03' W 076°23'4 7.5
2018-Dec-10 00:30N 39°06' W 076°24'4 8.3
2018-Dec-10 00:00N 39°10' W 076°26'510.7
2018-Dec-09 23:30N 39°13' W 076°32'4 7.6
2018-Dec-09 23:00N 39°15' W 076°35'1 1.0
2018-Dec-09 22:20N 39°16' W 076°36'316637.3
2018-Dec-09 21:50N 34°01' W 075°58'316781.4
2018-Dec-09 21:26N 39°16' W 076°36'0 0.0
2018-Dec-09 20:38N 39°16' W 076°36'0 0.0
2018-Dec-09 20:30N 39°16' W 076°36'0 0.0
2018-Dec-09 19:42N 39°16' W 076°36'0 0.0
2018-Dec-09 19:14N 39°16' W 076°36'0 0.0
2018-Dec-09 19:00N 39°16' W 076°36'0 0.0
2018-Dec-09 18:14N 39°16' W 076°36'0 0.0
2018-Dec-09 17:56N 39°16' W 076°36'0 0.0
2018-Dec-09 17:30N 39°16' W 076°36'0 0.0
2018-Dec-09 16:48N 39°16' W 076°36'0 0.0
2018-Dec-09 16:20N 39°16' W 076°36'0 0.0
2018-Dec-09 16:00N 39°16' W 076°36'0 0.0
2018-Dec-09 15:24N 39°16' W 076°36'0 0.0
2018-Dec-09 15:00N 39°16' W 076°36'0 0.0
2018-Dec-09 14:30N 39°16' W 076°36'0 0.0
2018-Dec-09 13:58N 39°16' W 076°36'1 1.6
2018-Dec-09 13:31N 39°15' W 076°35'4 8.7
2018-Dec-09 13:01N 39°12' W 076°31'612.7
2018-Dec-09 12:31N 39°09' W 076°25'715.0
2018-Dec-09 12:00N 39°01' W 076°23'917.5
2018-Dec-09 11:30N 38°53' W 076°24'1020.7
2018-Dec-09 11:01N 38°42' W 076°26'3420.2
2018-Dec-09 09:21N 38°10' W 076°14'820.7
2018-Dec-09 08:57N 38°02' W 076°13'920.2
2018-Dec-09 08:29N 37°53' W 076°09'5117.9
2018-Dec-09 05:37N 37°02' W 076°04'418.4
2018-Dec-09 05:25N 36°59' W 076°00'16816.1
2018-Dec-08 19:00N 34°12' W 075°42'12024.1 020 / 251028.9 5.4 14.010.225.0
2018-Dec-08 14:00N 32°42' W 077°18'3919.6 040 / 201029.9 5.4 18.010.624.0
2018-Dec-08 12:00N 32°12' W 077°48'13422.4 050 / 91028.310.8 20.010.927.0
2018-Dec-08 06:00N 30°30' W 079°30'27212.3 130 / 101026.1 5.4 22.013.424.0
2018-Dec-07 08:00N 26°06' W 078°18'   050 / 121024.9 5.4 22.017.224.0
2018-Dec-04 18:00N 28°24' W 075°36'4210.5 280 / 171014.8 5.4 24.021.024.0
2018-Dec-04 14:00N 29°06' W 075°36'11416.4 270 / 281018.9 5.4 24.022.525.0
2018-Dec-04 07:00N 31°00' W 075°24'4214.1 250 / 161012.8 5.4 24.021.024.0
2018-Dec-04 04:00N 31°42' W 075°18'18715.6 250 / 271014.910.8 23.021.526.0
2018-Dec-03 16:00N 34°48' W 075°00'8318.6 260 / 261015.9 5.4 22.017.226.0
2018-Dec-03 11:30N 36°10' W 075°19'2619.5
2018-Dec-03 10:09N 36°33' W 075°35'717.6
2018-Dec-03 09:44N 36°39' W 075°39'8113.9
2018-Dec-03 03:55N 37°57' W 076°10'818.5
2018-Dec-03 03:27N 38°05' W 076°13'3018.5
2018-Dec-03 01:50N 38°33' W 076°26'1018.8
2018-Dec-03 01:19N 38°43' W 076°26'619.3
2018-Dec-03 01:01N 38°49' W 076°25'917.0
2018-Dec-03 00:30N 38°57' W 076°23'713.6
2018-Dec-03 00:00N 39°04' W 076°23'611.8
2018-Dec-02 23:30N 39°10' W 076°25'611.9
2018-Dec-02 23:00N 39°13' W 076°32'4 7.8
2018-Dec-02 22:30N 39°15' W 076°35'1 1.1
2018-Dec-02 21:54N 39°16' W 076°36'0 0.0
2018-Dec-02 21:30N 39°16' W 076°36'0 0.0
2018-Dec-02 20:42N 39°16' W 076°36'0 0.0
2018-Dec-02 20:24N 39°16' W 076°36'0 0.0
2018-Dec-02 20:00N 39°16' W 076°36'0 0.0
2018-Dec-02 19:26N 39°16' W 076°36'0 0.0
2018-Dec-02 18:38N 39°16' W 076°36'0 0.0
2018-Dec-02 18:26N 39°16' W 076°36'0 0.0
2018-Dec-02 17:54N 39°16' W 076°36'0 0.0
2018-Dec-02 17:26N 39°16' W 076°36'0 0.0
2018-Dec-02 16:56N 39°16' W 076°36'0 0.0
2018-Dec-02 16:14N 39°16' W 076°36'0 0.0
2018-Dec-02 16:00N 39°16' W 076°36'0 0.0
2018-Dec-02 15:24N 39°16' W 076°36'0 0.0
2018-Dec-02 15:00N 39°16' W 076°36'0 0.0
2018-Dec-02 14:30N 39°16' W 076°36'0 0.0
2018-Dec-02 14:00N 39°16' W 076°36'0 0.6
2018-Dec-02 13:31N 39°16' W 076°36'2 4.3
2018-Dec-02 13:00N 39°15' W 076°33'5 9.0
2018-Dec-02 12:30N 39°12' W 076°29'611.2
2018-Dec-02 12:00N 39°08' W 076°24'713.9
2018-Dec-02 11:30N 39°01' W 076°23'816.0
2018-Dec-02 11:01N 38°53' W 076°24'1018.2
2018-Dec-02 10:28N 38°43' W 076°26'3119.9
2018-Dec-02 08:54N 38°13' W 076°15'920.8
2018-Dec-02 08:28N 38°04' W 076°13'920.2
2018-Dec-02 08:00N 37°55' W 076°09'5417.6
2018-Dec-02 04:55N 37°01' W 076°03'26517.8
2018-Dec-01 14:00N 32°42' W 077°12'21824.2 150 / 261022.910.8 23.014.626.0
2018-Dec-01 05:00N 29°42' W 079°36'   130 / 131023.927.0 22.015.427.0

Dump ship's entire track history